Al-Wafra, Kuwait

4:06 PM AST on October 20, 2014 (GMT +0300)
Kuwait International | Change Station
CLOSE
Current Station
Airport
Location: Kuwait,
Elevation: 180 ft
Nearby Weather Stations

Elev 180 ft 29.22 °N, 47.98 °E | Updated 6 minutes ago

Light Haze
Light Haze
100 °F
Feels Like 100 °F
N
7
Wind Variable Wind from West

Today
High -- | Low -- °F
--% Chance of Precip.
Yesterday
High -- | Low -- °F
Precip. -- in
5:51 AM 5:13 PM
Waning Crescent, 11% visible
Pressure 29.74 in
Visibility 1.6 miles
Clouds
Dew Point 39 °F
Humidity 12%
Rainfall 0.00 in
Snow Depth Not available.
UV Not available.
Pollen Not available.
Air Quality Not available.
Flu Activity Not available.
METAR OKBK 201300Z 26006KT 2500 -HZ NSC 38/04 Q1007 NOSIG

More Conditions Fewer Conditions

Pressure 29.74 in
Visibility 1.6 miles
Clouds
Dew Point 39 °F
Humidity 12%
Rainfall 0.00 in
Snow Depth Not available.
UV Not available.
Pollen Not available.
Air Quality Not available.
Flu Activity Not available.
METAR OKBK 201300Z 26006KT 2500 -HZ NSC 38/04 Q1007 NOSIG

More Conditions Fewer Conditions

10-Day Weather Forecast

Almanac

Astronomy

Oct. 20, 2014 Rise Set
Actual Time 5:51 AM AST 5:13 PM AST
Civil Twilight 5:27 AM AST 5:37 PM AST
Nautical Twilight 4:59 AM AST 6:04 PM AST
Astronomical Twilight 4:32 AM AST 6:32 PM AST
Moon 2:35 AM AST 3:09 PM AST
Length of Visible Light 12h 09m
Length of Day
11h 21m
Tomorrow will be 1m 36s shorter.
Waning Crescent, 11% of the Moon is Illuminated
Today
Waning Crescent
Oct 23
New
Oct 30
First Quarter
Nov 6
Full
Nov 14
Last Quarter

Yesterday's Extremes

Country Highs Country Lows

Community

WunderPhotos

Upload Photos

1,763,363 photos uploaded!

Nearby

Snow Depth

Not available.

Earthquake Activity

City Distance Mag. Time & Date
No recent earthquake activity has been reported nearby.
Minimum magnitude displayed is 2.5.

Coastal Water Temperatures

Place Temperature
No Stations Reporting

Nearby Weather Stations